Time;durP1;ratioP1;P1;durP2;ratioP2;P2;SDS_P1;SDS_P2;PMS_P1;PMS_P2;Temp;Humidity;BMP_temperature;BMP_pressure;BME280_temperature;BME280_humidity;BME280_pressure;Samples;Min_cycle;Max_cycle;Signal;HPM_P1;HPM_P2
2022/08/19 00:01:42;;;;;;;3.85;3.13;;;24.80;62.10;;;;;;10489981;28;20115;-50
2022/08/19 00:06:47;;;;;;;3.22;2.65;;;24.70;62.10;;;;;;10490200;28;20032;-49
2022/08/19 00:11:49;;;;;;;4.25;3.40;;;24.70;62.00;;;;;;10489525;28;20044;-52
2022/08/19 00:16:53;;;;;;;3.55;2.95;;;24.70;62.10;;;;;;10489616;28;20486;-47
2022/08/19 00:21:55;;;;;;;3.35;3.05;;;24.70;62.00;;;;;;10471730;28;20033;-51
2022/08/19 00:26:57;;;;;;;3.30;3.00;;;24.70;62.60;;;;;;10494299;28;20399;-50
2022/08/19 00:31:59;;;;;;;3.42;3.13;;;24.70;62.00;;;;;;10529884;28;20471;-51
2022/08/19 00:37:00;;;;;;;3.30;3.00;;;24.70;61.90;;;;;;10488536;28;20159;-52
2022/08/19 00:42:01;;;;;;;3.00;2.63;;;24.70;61.80;;;;;;10488402;28;20085;-49
2022/08/19 00:47:02;;;;;;;4.25;3.65;;;24.70;61.80;;;;;;10488637;28;20077;-51
2022/08/19 00:52:14;;;;;;;2.95;2.65;;;24.70;61.80;;;;;;10470745;28;20589;-50
2022/08/19 00:57:18;;;;;;;3.88;3.25;;;24.70;61.70;;;;;;10470385;28;20064;-48
2022/08/19 01:02:19;;;;;;;3.88;3.38;;;24.70;61.70;;;;;;10470363;28;20256;-51
2022/08/19 01:07:20;;;;;;;3.35;2.70;;;24.60;61.60;;;;;;10453418;28;20506;-48
2022/08/19 01:12:21;;;;;;;2.97;2.67;;;24.60;61.60;;;;;;10453261;28;20115;-50
2022/08/19 01:17:22;;;;;;;3.08;2.78;;;24.60;61.60;;;;;;10469877;28;20082;-50
2022/08/19 01:22:23;;;;;;;3.55;3.10;;;24.60;61.50;;;;;;10487677;28;20035;-50
2022/08/19 01:27:23;;;;;;;2.90;2.60;;;24.60;61.50;;;;;;10496877;28;20028;-49
2022/08/19 01:32:24;;;;;;;3.17;2.88;;;24.60;61.40;;;;;;10524318;28;20032;-49
2022/08/19 01:37:25;;;;;;;2.92;2.70;;;24.60;61.40;;;;;;10475960;28;20078;-49
2022/08/19 01:42:25;;;;;;;3.58;3.00;;;24.60;61.40;;;;;;10495714;28;20048;-48
2022/08/19 01:47:26;;;;;;;3.92;3.35;;;24.60;61.30;;;;;;10495470;28;20028;-48
2022/08/19 01:52:27;;;;;;;4.15;3.03;;;24.60;61.30;;;;;;10477366;28;20038;-48
2022/08/19 01:57:28;;;;;;;3.30;2.60;;;24.60;61.30;;;;;;10495229;28;20039;-51
2022/08/19 02:02:28;;;;;;;3.47;3.17;;;24.60;61.30;;;;;;10494609;28;20515;-49
2022/08/19 02:07:29;;;;;;;3.35;2.92;;;24.60;61.20;;;;;;10494568;28;20031;-49
2022/08/19 02:12:30;;;;;;;3.53;3.20;;;24.60;61.20;;;;;;10494051;28;20029;-49
2022/08/19 02:17:31;;;;;;;3.63;3.25;;;24.60;61.20;;;;;;10494286;28;20124;-50
2022/08/19 02:22:32;;;;;;;3.80;3.10;;;24.60;61.10;;;;;;10494012;28;20036;-50
2022/08/19 02:27:33;;;;;;;3.03;2.72;;;24.60;61.10;;;;;;10503631;28;20032;-48
2022/08/19 02:32:34;;;;;;;3.30;3.00;;;24.60;61.10;;;;;;10529245;28;20391;-47
2022/08/19 02:42:54;;;;;;;3.17;2.88;;;24.50;61.00;;;;;;10478467;28;20123;-48
2022/08/19 02:47:57;;;;;;;3.10;2.80;;;24.50;60.90;;;;;;10492837;28;20136;-50
2022/08/19 02:52:58;;;;;;;3.45;3.05;;;24.50;60.90;;;;;;10475348;28;20584;-48
2022/08/19 02:57:59;;;;;;;3.85;3.45;;;24.50;60.80;;;;;;10493582;28;20112;-48
2022/08/19 03:03:00;;;;;;;2.80;2.60;;;24.50;60.80;;;;;;10492688;28;20042;-48
2022/08/19 03:08:01;;;;;;;3.05;2.75;;;24.50;61.30;;;;;;10492874;28;20032;-51
2022/08/19 03:13:02;;;;;;;4.13;2.92;;;24.50;60.70;;;;;;10492057;28;20446;-49
2022/08/19 03:18:03;;;;;;;2.60;2.33;;;24.50;60.70;;;;;;10474323;28;20032;-49
2022/08/19 03:23:04;;;;;;;3.00;2.70;;;24.50;60.70;;;;;;10492250;28;20031;-47
2022/08/19 03:28:04;;;;;;;4.22;3.10;;;24.50;60.70;;;;;;10506395;28;20028;-47
2022/08/19 03:33:06;;;;;;;2.80;2.55;;;24.50;60.60;;;;;;10523147;28;20032;-49
2022/08/19 03:38:07;;;;;;;3.67;2.80;;;24.50;60.60;;;;;;10491462;28;20415;-48
2022/08/19 03:43:08;;;;;;;3.47;3.17;;;24.50;60.60;;;;;;10473166;28;20027;-51
2022/08/19 03:48:09;;;;;;;2.75;2.55;;;24.50;60.60;;;;;;10491042;28;20177;-48
2022/08/19 03:53:10;;;;;;;3.30;2.80;;;24.50;60.50;;;;;;10472655;28;20024;-51
2022/08/19 03:58:11;;;;;;;3.40;3.10;;;24.40;60.40;;;;;;10489860;28;20388;-47
2022/08/19 04:03:11;;;;;;;4.07;2.75;;;24.40;60.40;;;;;;10490551;28;20020;-51
2022/08/19 04:08:15;;;;;;;3.08;2.78;;;24.40;60.40;;;;;;10490237;28;20452;-48
2022/08/19 04:13:17;;;;;;;3.25;2.72;;;24.40;60.50;;;;;;10489889;28;20029;-47
2022/08/19 04:18:18;;;;;;;3.30;3.00;;;24.40;60.40;;;;;;10471445;28;20040;-48
2022/08/19 04:23:19;;;;;;;3.22;2.92;;;24.40;60.30;;;;;;10489354;28;20147;-51
2022/08/19 04:28:20;;;;;;;3.38;3.08;;;24.40;60.40;;;;;;10502907;28;20343;-50
2022/08/19 04:33:25;;;;;;;3.25;2.90;;;24.40;60.30;;;;;;10517145;28;20028;-48
2022/08/19 04:38:26;;;;;;;3.22;2.85;;;24.40;60.20;;;;;;10473145;28;20557;-49
2022/08/19 04:43:27;;;;;;;3.00;2.70;;;24.30;60.20;;;;;;10490539;28;20036;-48
2022/08/19 04:48:27;;;;;;;3.10;2.65;;;24.30;60.20;;;;;;10490608;28;20024;-51
2022/08/19 04:53:31;;;;;;;3.40;2.97;;;24.30;60.20;;;;;;10490661;28;20032;-50
2022/08/19 04:58:32;;;;;;;3.58;3.10;;;24.30;60.20;;;;;;10490232;28;20085;-50
2022/08/19 05:03:33;;;;;;;3.72;3.33;;;24.30;60.10;;;;;;10490382;28;20033;-51
2022/08/19 05:08:36;;;;;;;3.50;2.97;;;24.30;60.10;;;;;;10489774;28;20021;-51
2022/08/19 05:13:37;;;;;;;3.20;2.75;;;24.30;60.00;;;;;;10489565;28;20051;-48
2022/08/19 05:23:58;;;;;;;3.45;3.15;;;24.30;60.00;;;;;;10475333;28;20651;-49
2022/08/19 05:28:59;;;;;;;2.70;2.50;;;24.30;60.00;;;;;;10511511;28;20035;-49
2022/08/19 05:34:00;;;;;;;3.72;3.03;;;24.30;59.90;;;;;;10531251;28;20036;-49
2022/08/19 05:39:03;;;;;;;3.30;3.00;;;24.30;59.90;;;;;;10513106;28;20040;-51
2022/08/19 05:44:09;;;;;;;6.18;3.10;;;24.30;59.90;;;;;;10531282;28;20063;-48
2022/08/19 05:49:09;;;;;;;3.17;2.65;;;24.30;60.00;;;;;;10531163;28;20540;-50
2022/08/19 05:54:13;;;;;;;4.13;2.80;;;24.30;60.00;;;;;;10513183;28;20084;-47
2022/08/19 05:59:16;;;;;;;3.22;2.90;;;24.30;60.10;;;;;;10512944;28;20107;-51
2022/08/19 06:04:20;;;;;;;3.65;3.35;;;24.30;60.00;;;;;;10513085;28;20032;-51
2022/08/19 06:09:22;;;;;;;3.83;3.28;;;24.20;60.70;;;;;;10513053;28;20028;-52
2022/08/19 06:14:27;;;;;;;3.65;3.13;;;24.20;60.20;;;;;;10530743;28;20349;-48
2022/08/19 06:19:30;;;;;;;3.13;2.83;;;24.20;60.40;;;;;;10530519;28;20028;-49
2022/08/19 06:24:31;;;;;;;3.03;2.72;;;24.30;60.50;;;;;;10537679;28;20050;-49
2022/08/19 06:29:32;;;;;;;3.53;2.70;;;24.20;60.50;;;;;;10493378;28;20114;-49
2022/08/19 06:34:34;;;;;;;3.25;2.95;;;24.20;60.60;;;;;;10519678;28;20105;-47
2022/08/19 06:39:38;;;;;;;3.42;3.13;;;24.20;60.70;;;;;;10537627;28;20036;-51
2022/08/19 06:44:42;;;;;;;3.15;2.85;;;24.20;60.80;;;;;;10537448;28;20031;-49
2022/08/19 06:49:43;;;;;;;3.50;3.20;;;24.20;60.80;;;;;;10537178;28;20031;-48
2022/08/19 06:54:44;;;;;;;3.30;3.00;;;24.30;60.90;;;;;;10537124;28;20422;-49
2022/08/19 06:59:44;;;;;;;4.15;3.75;;;24.30;60.90;;;;;;10536587;28;20032;-49
2022/08/19 07:04:45;;;;;;;3.75;3.38;;;24.20;60.90;;;;;;10518710;28;20141;-49
2022/08/19 07:09:46;;;;;;;5.03;4.07;;;24.20;61.00;;;;;;10518440;28;20044;-52
2022/08/19 07:14:48;;;;;;;5.63;4.53;;;24.20;61.00;;;;;;10517920;28;20040;-51
2022/08/19 07:19:50;;;;;;;5.25;4.32;;;24.20;61.10;;;;;;10535841;28;20077;-50
2022/08/19 07:24:53;;;;;;;5.93;4.43;;;24.30;61.20;;;;;;10536068;28;20379;-48
2022/08/19 07:29:54;;;;;;;4.35;3.95;;;24.20;61.00;;;;;;10505663;28;20031;-48
2022/08/19 07:34:55;;;;;;;5.72;4.45;;;24.20;61.20;;;;;;10499890;28;20020;-49
2022/08/19 07:39:56;;;;;;;5.18;4.38;;;24.20;61.20;;;;;;10534522;28;20044;-52
2022/08/19 07:44:58;;;;;;;5.28;4.25;;;24.20;61.10;;;;;;10516565;28;20503;-49
2022/08/19 07:49:58;;;;;;;5.70;4.65;;;24.20;61.20;;;;;;10534337;28;20445;-51
2022/08/19 07:55:03;;;;;;;5.30;4.38;;;24.20;61.20;;;;;;10516065;28;20039;-51
2022/08/19 08:00:06;;;;;;;7.07;6.38;;;24.20;61.40;;;;;;10534274;28;20056;-52
2022/08/19 08:10:26;;;;;;;12.15;9.88;;;24.20;61.70;;;;;;10533740;28;20040;-51
2022/08/19 08:15:27;;;;;;;12.50;10.23;;;24.20;61.90;;;;;;10534178;28;20036;-51
2022/08/19 08:20:27;;;;;;;12.05;9.75;;;24.20;62.10;;;;;;10533403;28;20035;-52
2022/08/19 08:25:29;;;;;;;10.05;8.93;;;24.30;62.10;;;;;;10533162;28;20024;-51
2022/08/19 08:30:33;;;;;;;9.23;8.27;;;24.30;62.00;;;;;;10480199;28;20037;-50
2022/08/19 08:35:33;;;;;;;9.13;8.18;;;24.30;62.00;;;;;;10522034;28;20072;-52
2022/08/19 08:40:43;;;;;;;11.90;10.13;;;24.30;62.10;;;;;;10514226;28;20089;-52
2022/08/19 08:45:55;;;;;;;11.35;10.15;;;24.30;62.10;;;;;;10532554;28;20367;-52
2022/08/19 08:50:57;;;;;;;12.27;10.88;;;24.30;62.10;;;;;;10515044;28;20035;-49
2022/08/19 08:56:01;;;;;;;13.35;10.63;;;24.30;62.10;;;;;;10532542;28;20039;-48
2022/08/19 09:01:02;;;;;;;10.27;9.20;;;24.30;62.20;;;;;;10530408;28;20035;-53
2022/08/19 09:06:22;;;;;;;10.45;9.35;;;24.40;62.10;;;;;;10532384;28;20092;-49
2022/08/19 09:11:44;;;;;;;8.85;7.95;;;24.40;62.10;;;;;;10515915;28;20031;-51
2022/08/19 09:16:45;;;;;;;8.55;7.43;;;24.30;62.10;;;;;;10513745;28;20028;-50
2022/08/19 09:21:46;;;;;;;9.05;8.02;;;24.30;62.10;;;;;;10531789;28;20028;-52
2022/08/19 09:26:46;;;;;;;9.10;8.20;;;24.30;62.10;;;;;;10509805;28;20404;-53
2022/08/19 09:31:47;;;;;;;9.65;8.23;;;24.30;62.20;;;;;;10471906;28;20032;-51
2022/08/19 09:36:54;;;;;;;8.70;7.32;;;24.40;62.20;;;;;;10531017;28;20103;-52
2022/08/19 09:41:55;;;;;;;9.68;8.68;;;24.40;62.20;;;;;;10514018;28;20036;-51
2022/08/19 09:46:56;;;;;;;9.63;8.35;;;24.40;62.20;;;;;;10531901;28;20020;-52
2022/08/19 09:51:57;;;;;;;7.65;6.90;;;24.40;62.30;;;;;;10531125;28;20024;-50
2022/08/19 09:57:00;;;;;;;9.48;7.60;;;24.40;62.20;;;;;;10534465;28;20028;-53
2022/08/19 10:02:02;;;;;;;8.18;7.38;;;24.40;62.20;;;;;;10538978;28;20059;-49
2022/08/19 10:07:04;;;;;;;8.75;7.82;;;24.40;62.20;;;;;;10520658;28;20086;-52
2022/08/19 10:12:05;;;;;;;9.32;8.13;;;24.40;62.20;;;;;;10538712;28;20047;-51
2022/08/19 10:17:06;;;;;;;10.25;8.30;;;24.50;62.20;;;;;;10503797;28;20546;-52
2022/08/19 10:22:06;;;;;;;10.13;8.45;;;24.50;62.20;;;;;;10520237;28;20119;-53
2022/08/19 10:27:07;;;;;;;9.18;8.10;;;24.50;62.10;;;;;;10532288;28;20031;-53
2022/08/19 10:32:08;;;;;;;11.88;9.07;;;24.50;62.00;;;;;;10498363;28;20111;-50
2022/08/19 10:37:09;;;;;;;8.77;7.78;;;24.50;62.10;;;;;;10537478;28;20077;-52
2022/08/19 10:42:11;;;;;;;9.73;8.73;;;24.50;62.10;;;;;;10537149;28;20821;-52
2022/08/19 10:47:12;;;;;;;8.40;7.55;;;24.50;62.10;;;;;;10537674;28;20131;-52
2022/08/19 10:57:32;;;;;;;11.27;8.98;;;24.60;62.30;;;;;;10536863;28;20036;-52
2022/08/19 11:02:33;;;;;;;9.48;8.48;;;24.60;62.10;;;;;;10536678;28;20039;-51
2022/08/19 11:07:34;;;;;;;8.43;7.50;;;24.60;62.20;;;;;;10535668;28;20409;-48
2022/08/19 11:12:41;;;;;;;8.20;7.07;;;24.60;62.20;;;;;;10536368;28;20032;-52
2022/08/19 11:17:43;;;;;;;8.90;8.00;;;24.60;62.30;;;;;;10535788;28;20098;-49
2022/08/19 11:22:44;;;;;;;11.00;6.82;;;24.60;62.30;;;;;;10535660;28;20387;-51
2022/08/19 11:27:45;;;;;;;7.60;6.70;;;24.70;62.20;;;;;;10524352;28;20032;-50
2022/08/19 11:32:47;;;;;;;7.80;6.88;;;24.70;62.20;;;;;;10501456;28;20028;-52
2022/08/19 11:37:48;;;;;;;10.38;8.20;;;24.70;62.20;;;;;;10535252;28;20032;-52
2022/08/19 11:42:55;;;;;;;7.00;6.22;;;24.70;62.20;;;;;;10516792;28;20020;-53
2022/08/19 11:47:56;;;;;;;7.68;6.68;;;24.70;62.10;;;;;;10534513;28;20020;-52
2022/08/19 11:52:57;;;;;;;8.25;7.43;;;24.70;62.20;;;;;;10534684;28;20062;-53
2022/08/19 11:57:57;;;;;;;9.02;7.88;;;24.70;62.30;;;;;;10534036;28;20032;-52
2022/08/19 12:02:58;;;;;;;8.25;7.45;;;24.70;62.40;;;;;;10534386;28;20074;-50
2022/08/19 12:07:59;;;;;;;8.43;7.57;;;24.70;62.40;;;;;;10534189;28;20118;-50
2022/08/19 12:13:00;;;;;;;8.05;7.05;;;24.70;62.40;;;;;;10534093;28;20039;-51
2022/08/19 12:18:01;;;;;;;9.73;8.35;;;24.70;62.50;;;;;;10515387;28;20107;-48
2022/08/19 12:23:03;;;;;;;9.02;7.25;;;24.70;62.40;;;;;;10533418;28;20123;-53
2022/08/19 12:28:04;;;;;;;8.65;7.55;;;24.70;62.30;;;;;;10501322;28;20491;-52
2022/08/19 12:33:05;;;;;;;9.27;8.30;;;24.70;62.40;;;;;;10483346;28;20027;-52
2022/08/19 12:38:06;;;;;;;8.60;7.18;;;24.70;62.40;;;;;;10532637;28;20052;-49
2022/08/19 12:43:07;;;;;;;9.07;8.18;;;24.80;62.50;;;;;;10533062;28;20020;-51
2022/08/19 12:48:09;;;;;;;8.68;7.78;;;24.70;62.50;;;;;;10532374;28;20113;-52
2022/08/19 12:53:10;;;;;;;8.38;7.57;;;24.70;62.50;;;;;;10532432;28;20024;-52
2022/08/19 12:58:12;;;;;;;8.48;7.18;;;24.70;62.60;;;;;;10513939;28;20028;-52
2022/08/19 13:03:13;;;;;;;10.13;7.88;;;24.70;62.70;;;;;;10532374;28;20043;-50
2022/08/19 13:08:14;;;;;;;8.25;7.45;;;24.70;62.70;;;;;;10532198;28;20103;-48
2022/08/19 13:13:14;;;;;;;8.82;7.88;;;24.70;62.60;;;;;;10531689;28;20040;-51
2022/08/19 13:18:15;;;;;;;8.70;7.80;;;24.70;62.50;;;;;;10532003;28;20111;-53
2022/08/19 13:23:16;;;;;;;8.38;7.57;;;24.70;62.60;;;;;;10531805;28;20098;-52
2022/08/19 13:28:17;;;;;;;10.73;8.13;;;24.70;62.50;;;;;;10515475;28;20116;-51
2022/08/19 13:33:18;;;;;;;9.27;8.00;;;24.80;62.60;;;;;;10507794;28;20028;-51
2022/08/19 13:38:21;;;;;;;10.65;8.27;;;24.70;62.60;;;;;;10521729;28;20522;-52
2022/08/19 13:43:26;;;;;;;9.07;7.97;;;24.70;62.70;;;;;;10539436;28;20107;-51
2022/08/19 13:48:26;;;;;;;9.60;8.60;;;24.70;62.70;;;;;;10539669;28;20543;-51
2022/08/19 13:53:27;;;;;;;9.95;8.73;;;24.70;62.80;;;;;;10539297;28;20032;-49
2022/08/19 13:58:28;;;;;;;9.48;7.82;;;24.70;62.80;;;;;;10539474;28;20074;-52
2022/08/19 14:03:30;;;;;;;8.05;6.85;;;24.60;62.80;;;;;;10539053;28;20028;-51
2022/08/19 14:08:32;;;;;;;8.63;7.75;;;24.60;62.80;;;;;;10520806;28;20117;-51
2022/08/19 14:13:33;;;;;;;9.23;8.23;;;24.60;63.50;;;;;;10539119;28;20111;-50
2022/08/19 14:18:35;;;;;;;10.45;9.45;;;24.60;63.00;;;;;;10538102;28;20408;-52
2022/08/19 14:23:36;;;;;;;8.82;7.93;;;24.60;63.00;;;;;;10536717;28;20568;-51
2022/08/19 14:28:37;;;;;;;8.52;7.50;;;24.60;63.00;;;;;;10519430;28;20237;-51
2022/08/19 14:33:38;;;;;;;7.97;7.18;;;24.60;62.90;;;;;;10510772;28;20424;-50
2022/08/19 14:38:39;;;;;;;8.60;7.70;;;24.60;63.00;;;;;;10502336;28;20093;-49
2022/08/19 14:43:40;;;;;;;7.85;7.03;;;24.60;63.10;;;;;;10537565;28;20499;-52
2022/08/19 14:48:41;;;;;;;8.85;8.05;;;24.60;63.10;;;;;;10537162;28;20043;-53
2022/08/19 14:53:43;;;;;;;7.85;6.85;;;24.60;63.00;;;;;;10537356;28;20109;-50
2022/08/19 14:58:44;;;;;;;7.72;6.88;;;24.60;63.00;;;;;;10536801;28;20032;-48
2022/08/19 15:03:45;;;;;;;8.88;7.78;;;24.60;63.10;;;;;;10518679;28;20103;-50
2022/08/19 15:08:46;;;;;;;7.95;7.18;;;24.60;63.20;;;;;;10537318;28;20035;-50
2022/08/19 15:13:47;;;;;;;7.88;7.10;;;24.60;63.30;;;;;;10536231;28;20077;-51
2022/08/19 15:18:54;;;;;;;7.13;6.43;;;24.50;63.30;;;;;;10535784;28;20130;-51
2022/08/19 15:23:58;;;;;;;8.30;7.50;;;24.60;63.50;;;;;;10535772;28;20035;-49
2022/08/19 15:29:01;;;;;;;6.93;6.22;;;24.60;63.50;;;;;;10495514;28;20035;-53
2022/08/19 15:34:03;;;;;;;6.80;6.10;;;24.50;63.70;;;;;;10493746;28;20035;-51
2022/08/19 15:39:06;;;;;;;7.32;6.63;;;24.50;63.70;;;;;;10516977;28;20032;-51
2022/08/19 15:44:10;;;;;;;6.75;5.93;;;24.60;63.80;;;;;;10535719;28;20039;-51
2022/08/19 15:49:14;;;;;;;7.50;5.97;;;24.50;63.90;;;;;;10517034;28;20120;-52
2022/08/19 15:54:20;;;;;;;7.20;6.50;;;24.50;63.80;;;;;;10533731;28;20107;-52
2022/08/19 16:09:59;;;;;;;5.78;5.28;;;24.60;63.80;;;;;;10535277;28;20047;-50
2022/08/19 16:14:59;;;;;;;7.18;6.47;;;24.60;64.00;;;;;;10533956;28;20020;-50
2022/08/19 16:20:04;;;;;;;7.35;6.65;;;24.60;64.20;;;;;;10515528;28;20459;-52
2022/08/19 16:25:08;;;;;;;6.35;5.68;;;24.60;64.00;;;;;;10533131;28;20032;-52
2022/08/19 16:30:09;;;;;;;5.53;5.00;;;24.50;64.00;;;;;;10483336;28;20028;-51
2022/08/19 16:35:10;;;;;;;6.82;6.15;;;24.60;64.10;;;;;;10519071;28;20056;-50
2022/08/19 16:40:11;;;;;;;5.75;5.13;;;24.60;64.00;;;;;;10533139;28;20536;-49
2022/08/19 16:45:12;;;;;;;6.63;5.93;;;24.60;64.10;;;;;;10532601;28;20110;-52
2022/08/19 16:50:13;;;;;;;6.43;5.57;;;24.60;64.00;;;;;;10532395;28;20110;-48
2022/08/19 16:55:13;;;;;;;6.43;5.82;;;24.50;63.90;;;;;;10532381;28;20032;-51
2022/08/19 17:00:15;;;;;;;5.57;5.07;;;24.60;63.90;;;;;;10532257;28;20498;-49
2022/08/19 17:05:16;;;;;;;6.18;5.57;;;24.50;63.80;;;;;;10514119;28;20308;-51
2022/08/19 17:10:16;;;;;;;6.22;5.63;;;24.60;63.90;;;;;;10532500;28;20590;-52
2022/08/19 17:15:17;;;;;;;6.00;5.43;;;24.50;63.80;;;;;;10531899;28;20147;-52
2022/08/19 17:20:18;;;;;;;5.30;4.80;;;24.60;63.90;;;;;;10532170;28;20086;-49
2022/08/19 17:25:19;;;;;;;6.20;5.60;;;24.50;63.90;;;;;;10531799;28;20032;-50
2022/08/19 17:30:22;;;;;;;5.72;5.13;;;24.50;63.80;;;;;;10480101;28;20035;-51
2022/08/19 17:35:22;;;;;;;5.60;5.07;;;24.50;63.90;;;;;;10501225;28;20043;-52
2022/08/19 17:40:24;;;;;;;6.00;5.40;;;24.50;63.90;;;;;;10530801;28;20499;-50
2022/08/19 17:45:26;;;;;;;5.22;4.72;;;24.50;63.80;;;;;;10531918;28;20127;-53
2022/08/19 17:50:28;;;;;;;5.35;4.85;;;24.50;63.80;;;;;;10531166;28;20111;-49
2022/08/19 17:55:29;;;;;;;6.00;5.43;;;24.50;63.90;;;;;;10513094;28;20032;-53
2022/08/19 18:00:32;;;;;;;5.22;4.72;;;24.50;63.90;;;;;;10530901;28;20043;-50
2022/08/19 18:05:41;;;;;;;5.63;5.03;;;24.50;63.90;;;;;;10512891;28;20024;-49
2022/08/19 18:10:42;;;;;;;4.88;4.43;;;24.50;64.00;;;;;;10513774;28;20024;-51
2022/08/19 18:15:42;;;;;;;5.45;4.60;;;24.50;64.00;;;;;;10512580;28;20111;-48
2022/08/19 18:20:43;;;;;;;5.57;5.07;;;24.50;64.20;;;;;;10538090;28;20031;-51
2022/08/19 18:25:44;;;;;;;6.15;5.07;;;24.60;64.10;;;;;;10538629;28;20097;-50
2022/08/19 18:30:45;;;;;;;5.53;4.95;;;24.50;64.00;;;;;;10483051;28;20025;-51
2022/08/19 18:35:52;;;;;;;5.43;4.75;;;24.50;64.20;;;;;;10528733;28;20047;-51
2022/08/19 18:51:31;;;;;;;5.53;5.03;;;24.50;64.20;;;;;;10537329;28;20495;-52
2022/08/19 18:56:33;;;;;;;4.93;4.43;;;24.50;64.10;;;;;;10536962;28;20050;-51
2022/08/19 19:01:38;;;;;;;5.40;4.90;;;24.50;64.10;;;;;;10536887;28;20028;-49
2022/08/19 19:06:41;;;;;;;4.90;4.43;;;24.50;64.10;;;;;;10536551;28;20036;-48
2022/08/19 19:11:45;;;;;;;4.30;3.78;;;24.60;64.10;;;;;;10518349;28;20369;-51
2022/08/19 19:16:47;;;;;;;5.53;4.45;;;24.50;64.00;;;;;;10518028;28;20032;-49
2022/08/19 19:21:48;;;;;;;4.40;4.00;;;24.60;64.10;;;;;;10536296;28;20042;-48
2022/08/19 19:26:51;;;;;;;4.50;4.10;;;24.50;64.00;;;;;;10514460;28;20020;-52
2022/08/19 19:31:54;;;;;;;4.80;4.35;;;24.60;64.00;;;;;;10493604;28;20028;-52
2022/08/19 19:36:55;;;;;;;4.43;3.88;;;24.60;64.00;;;;;;10533758;28;20036;-49
2022/08/19 19:41:56;;;;;;;4.30;3.90;;;24.50;64.00;;;;;;10515209;28;20048;-49
2022/08/19 19:46:58;;;;;;;4.50;4.10;;;24.60;64.00;;;;;;10532410;28;20032;-52
2022/08/19 19:51:59;;;;;;;4.65;4.15;;;24.60;64.00;;;;;;10532762;28;20031;-50
2022/08/19 19:56:59;;;;;;;5.07;3.60;;;24.50;63.90;;;;;;10532747;28;20028;-52
2022/08/19 20:02:00;;;;;;;4.85;4.35;;;24.60;64.00;;;;;;10532465;28;20042;-49
2022/08/19 20:07:01;;;;;;;4.63;4.00;;;24.60;64.00;;;;;;10514974;28;20100;-51
2022/08/19 20:12:02;;;;;;;3.70;3.30;;;24.50;63.90;;;;;;10531968;28;20028;-50
2022/08/19 20:17:04;;;;;;;4.07;3.67;;;24.60;64.00;;;;;;10531895;28;20499;-51
2022/08/19 20:22:05;;;;;;;4.20;3.80;;;24.60;63.90;;;;;;10531483;28;20061;-50
2022/08/19 20:27:06;;;;;;;5.18;3.85;;;24.50;63.90;;;;;;10525538;28;20674;-51
2022/08/19 20:32:08;;;;;;;4.35;3.65;;;24.50;63.90;;;;;;10491875;28;20032;-51
2022/08/19 20:37:09;;;;;;;3.55;3.15;;;24.60;64.00;;;;;;10531038;28;20031;-50
2022/08/19 20:42:10;;;;;;;4.30;3.22;;;24.50;63.90;;;;;;10530521;28;20050;-50
2022/08/19 20:47:10;;;;;;;4.00;3.60;;;24.50;63.90;;;;;;10495996;28;20032;-51
2022/08/19 20:52:11;;;;;;;3.90;3.55;;;24.50;63.90;;;;;;10530378;28;20086;-53
2022/08/19 20:57:12;;;;;;;3.53;2.88;;;24.60;64.60;;;;;;10530643;28;20438;-50
2022/08/19 21:02:13;;;;;;;3.78;2.97;;;24.50;63.90;;;;;;10512054;28;20053;-51
2022/08/19 21:07:14;;;;;;;3.20;2.90;;;24.50;63.90;;;;;;10530475;28;20394;-49
2022/08/19 21:12:16;;;;;;;3.63;3.25;;;24.50;63.90;;;;;;10529681;28;20020;-50
2022/08/19 21:17:17;;;;;;;3.60;3.05;;;24.60;63.90;;;;;;10512069;28;20036;-50
2022/08/19 21:22:18;;;;;;;3.55;3.25;;;24.50;63.90;;;;;;10511796;28;20028;-52
2022/08/19 21:27:18;;;;;;;3.65;3.13;;;24.50;63.80;;;;;;10504253;28;20727;-51
2022/08/19 21:32:20;;;;;;;4.13;3.50;;;24.60;63.80;;;;;;10491505;28;20522;-50
2022/08/19 21:37:21;;;;;;;2.88;2.58;;;24.50;63.80;;;;;;10511391;28;20024;-50
2022/08/19 21:42:22;;;;;;;3.67;3.28;;;24.50;63.80;;;;;;10485960;28;20044;-50
2022/08/19 21:47:23;;;;;;;3.30;2.85;;;24.50;63.80;;;;;;10487619;28;20036;-50
2022/08/19 21:52:25;;;;;;;3.05;2.75;;;24.50;63.80;;;;;;10490089;28;20025;-51
2022/08/19 21:57:26;;;;;;;3.20;2.78;;;24.50;63.80;;;;;;10494814;28;20027;-51
2022/08/19 22:02:27;;;;;;;3.40;2.85;;;24.50;63.80;;;;;;10495806;28;20115;-50
2022/08/19 22:07:28;;;;;;;2.72;2.42;;;24.50;63.80;;;;;;10495142;28;20108;-52
2022/08/19 22:12:33;;;;;;;3.38;3.08;;;24.50;63.80;;;;;;10494953;28;20618;-51
2022/08/19 22:17:37;;;;;;;2.65;2.20;;;24.50;63.80;;;;;;10494935;28;20111;-49
2022/08/19 22:22:46;;;;;;;2.80;2.28;;;24.50;63.80;;;;;;10494490;28;20020;-51
2022/08/19 22:27:47;;;;;;;3.63;3.20;;;24.50;63.80;;;;;;10481719;28;20036;-50
2022/08/19 22:32:59;;;;;;;3.20;2.67;;;24.50;63.70;;;;;;10460445;28;20553;-53
2022/08/19 22:38:01;;;;;;;2.83;2.47;;;24.50;63.80;;;;;;10492643;28;20032;-51
2022/08/19 22:43:10;;;;;;;3.13;2.80;;;24.50;63.80;;;;;;10494620;28;20032;-48
2022/08/19 22:48:16;;;;;;;3.97;3.00;;;24.50;63.80;;;;;;10492907;28;20028;-49
2022/08/19 22:53:16;;;;;;;3.70;2.65;;;24.50;63.80;;;;;;10493475;28;20032;-52
2022/08/19 22:58:17;;;;;;;3.28;2.95;;;24.50;63.70;;;;;;10492462;28;20409;-49
2022/08/19 23:03:18;;;;;;;3.22;2.60;;;24.50;64.20;;;;;;10493380;28;20108;-52
2022/08/19 23:08:19;;;;;;;3.13;2.83;;;24.50;63.70;;;;;;10493234;28;20028;-50
2022/08/19 23:13:19;;;;;;;2.63;2.40;;;24.50;63.90;;;;;;10492758;28;20430;-50
2022/08/19 23:18:20;;;;;;;4.10;2.92;;;24.50;63.80;;;;;;10492372;28;20648;-52
2022/08/19 23:23:23;;;;;;;4.40;3.15;;;24.50;63.70;;;;;;10492077;28;20037;-53
2022/08/19 23:33:43;;;;;;;3.10;2.55;;;24.50;63.70;;;;;;10465687;28;20546;-52
2022/08/19 23:38:47;;;;;;;2.85;2.55;;;24.50;63.70;;;;;;10497615;28;20040;-51
2022/08/19 23:43:48;;;;;;;2.70;2.40;;;24.50;63.80;;;;;;10533420;28;20054;-52
2022/08/19 23:48:49;;;;;;;2.83;2.53;;;24.50;63.70;;;;;;10515046;28;20031;-52
2022/08/19 23:53:49;;;;;;;2.83;2.25;;;24.50;63.70;;;;;;10533189;28;20384;-52
2022/08/19 23:58:50;;;;;;;2.78;2.17;;;24.50;63.70;;;;;;10532787;28;20460;-50
